Time;durP1;ratioP1;P1;durP2;ratioP2;P2;SDS_P1;SDS_P2;PMS_P1;PMS_P2;Temp;Humidity;BMP_temperature;BMP_pressure;BME280_temperature;BME280_humidity;BME280_pressure;Samples;Min_cycle;Max_cycle;Signal;HPM_P1;HPM_P2
2024/03/21 00:00:13;;;;;;;12.77;7.15;;;6.90;96.20;;;;;;5028215;28;20060;-80
2024/03/21 00:02:41;;;;;;;12.25;7.68;;;6.70;97.20;;;;;;5042297;28;20421;-79
2024/03/21 00:05:09;;;;;;;15.07;8.52;;;6.60;97.90;;;;;;5020863;28;20670;-79
2024/03/21 00:07:37;;;;;;;14.02;7.90;;;6.40;98.60;;;;;;5021836;28;20046;-78
2024/03/21 00:10:03;;;;;;;13.73;8.25;;;6.50;98.40;;;;;;5026592;28;20064;-79
2024/03/21 00:12:29;;;;;;;10.38;7.57;;;6.60;97.70;;;;;;5020520;28;20071;-79
2024/03/21 00:14:57;;;;;;;10.43;7.90;;;6.70;97.50;;;;;;5026883;28;20045;-80
2024/03/21 00:17:23;;;;;;;13.00;8.50;;;6.70;97.40;;;;;;5050262;28;20056;-80
2024/03/21 00:19:49;;;;;;;13.52;9.32;;;6.60;97.50;;;;;;5029611;28;20395;-78
2024/03/21 00:22:15;;;;;;;15.52;9.15;;;6.40;98.20;;;;;;5019804;28;20098;-79
2024/03/21 00:24:41;;;;;;;12.07;7.97;;;6.40;98.40;;;;;;5024084;28;20095;-79
2024/03/21 00:27:09;;;;;;;12.93;8.05;;;6.30;98.60;;;;;;5030146;28;20109;-79
2024/03/21 00:29:35;;;;;;;13.32;7.88;;;6.30;98.50;;;;;;5017933;28;20052;-78
2024/03/21 00:32:03;;;;;;;14.68;8.75;;;6.30;98.20;;;;;;5037702;28;20052;-78
2024/03/21 00:34:29;;;;;;;15.13;9.10;;;6.20;98.60;;;;;;5023359;28;20049;-78
2024/03/21 00:36:56;;;;;;;11.60;8.05;;;6.10;98.90;;;;;;5023152;28;20184;-80
2024/03/21 00:39:23;;;;;;;13.48;8.25;;;5.90;99.30;;;;;;5027635;28;20056;-80
2024/03/21 00:41:50;;;;;;;12.25;7.82;;;5.90;99.90;;;;;;5044856;28;20071;-79
2024/03/21 00:44:16;;;;;;;13.10;7.25;;;6.00;99.70;;;;;;5025753;28;20056;-80
2024/03/21 00:46:45;;;;;;;10.23;7.18;;;5.90;99.60;;;;;;5025675;28;20049;-79
2024/03/21 00:49:15;;;;;;;11.27;7.75;;;6.00;99.50;;;;;;5026197;28;20116;-80
2024/03/21 00:51:41;;;;;;;13.70;8.02;;;5.90;99.40;;;;;;5021070;28;20050;-79
2024/03/21 00:54:07;;;;;;;10.50;7.70;;;5.90;99.20;;;;;;5026226;28;20096;-79
2024/03/21 00:56:41;;;;;;;11.98;7.55;;;6.00;99.20;;;;;;5030077;28;20045;-79
2024/03/21 00:59:07;;;;;;;11.48;8.38;;;5.90;99.30;;;;;;5022754;28;20053;-79
2024/03/21 01:01:33;;;;;;;10.05;7.93;;;5.90;99.20;;;;;;5023163;28;20079;-78
2024/03/21 01:04:01;;;;;;;14.20;7.55;;;6.00;99.30;;;;;;5019451;28;20053;-79
2024/03/21 01:06:29;;;;;;;10.85;7.72;;;5.90;99.30;;;;;;5023268;28;20048;-79
2024/03/21 01:09:01;;;;;;;13.05;8.43;;;5.80;99.70;;;;;;5033262;28;20057;-79
2024/03/21 01:11:27;;;;;;;13.10;7.57;;;5.70;99.90;;;;;;5023460;28;20714;-79
2024/03/21 01:13:52;;;;;;;12.60;8.07;;;5.70;99.90;;;;;;5020366;28;20053;-80
2024/03/21 01:16:18;;;;;;;12.38;7.32;;;5.70;99.80;;;;;;5043547;28;20099;-79
2024/03/21 01:18:44;;;;;;;14.27;7.72;;;5.70;99.70;;;;;;5025753;28;20061;-79
2024/03/21 01:21:15;;;;;;;13.52;7.28;;;5.80;99.40;;;;;;5025781;28;20111;-79
2024/03/21 01:23:41;;;;;;;13.55;7.10;;;5.80;99.50;;;;;;5027841;28;20053;-80
2024/03/21 01:26:07;;;;;;;11.98;7.55;;;5.70;99.70;;;;;;5029387;28;20056;-79
2024/03/21 01:28:33;;;;;;;9.55;6.95;;;5.70;99.80;;;;;;5025608;28;20111;-79
2024/03/21 01:31:14;;;;;;;12.15;7.75;;;5.60;99.90;;;;;;5021974;28;20061;-79
2024/03/21 01:33:45;;;;;;;8.88;7.22;;;5.70;99.90;;;;;;5016418;28;20057;-79
2024/03/21 01:36:14;;;;;;;10.02;7.20;;;5.70;99.80;;;;;;5016211;28;20064;-79
2024/03/21 01:38:43;;;;;;;9.02;6.85;;;5.80;99.40;;;;;;5026980;28;20060;-79
2024/03/21 01:41:11;;;;;;;10.38;7.18;;;5.90;99.10;;;;;;5023191;28;20657;-78
2024/03/21 01:43:40;;;;;;;11.32;7.15;;;5.90;98.70;;;;;;5043081;28;20052;-79
2024/03/21 01:46:13;;;;;;;10.07;7.10;;;6.00;98.30;;;;;;5022178;28;20052;-79
2024/03/21 01:48:42;;;;;;;14.25;7.05;;;5.90;98.20;;;;;;5027014;28;20050;-79
2024/03/21 01:51:09;;;;;;;12.45;7.40;;;5.90;98.50;;;;;;5029455;28;20389;-79
2024/03/21 01:53:36;;;;;;;11.55;7.43;;;5.80;99.00;;;;;;5053308;28;20510;-79
2024/03/21 01:56:05;;;;;;;12.20;7.68;;;5.70;99.50;;;;;;5028537;28;20126;-79
2024/03/21 01:58:31;;;;;;;14.60;7.30;;;5.60;99.70;;;;;;5029089;28;20052;-79
2024/03/21 02:01:16;;;;;;;9.95;6.72;;;5.40;99.80;;;;;;5027286;28;20052;-79
2024/03/21 02:03:44;;;;;;;10.82;7.05;;;5.50;99.60;;;;;;5029258;28;20056;-79
2024/03/21 02:06:10;;;;;;;11.63;7.30;;;5.50;99.40;;;;;;5024549;28;20049;-79
2024/03/21 02:08:36;;;;;;;11.38;6.95;;;5.40;99.70;;;;;;5032880;28;20051;-79
2024/03/21 02:11:07;;;;;;;10.40;7.05;;;5.30;99.90;;;;;;5046924;28;20056;-80
2024/03/21 02:13:33;;;;;;;11.60;7.30;;;5.30;99.90;;;;;;5035927;28;20049;-80
2024/03/21 02:15:59;;;;;;;11.73;7.18;;;5.30;99.90;;;;;;5032058;28;20127;-79
2024/03/21 02:18:24;;;;;;;9.90;7.22;;;5.30;99.90;;;;;;5025781;28;20068;-80
2024/03/21 02:20:50;;;;;;;8.98;6.80;;;5.30;99.90;;;;;;5041445;28;20061;-79
2024/03/21 02:23:17;;;;;;;11.60;7.60;;;5.30;99.90;;;;;;5032570;28;20049;-79
2024/03/21 02:25:43;;;;;;;9.05;7.00;;;5.20;99.90;;;;;;5047065;28;20069;-79
2024/03/21 02:28:09;;;;;;;12.32;7.05;;;5.20;99.90;;;;;;5046689;28;20049;-79
2024/03/21 02:30:35;;;;;;;9.65;6.63;;;5.30;99.90;;;;;;5028319;28;20053;-79
2024/03/21 02:33:04;;;;;;;11.73;7.68;;;5.30;99.90;;;;;;5026597;28;20054;-79
2024/03/21 02:35:34;;;;;;;12.20;7.28;;;5.20;99.90;;;;;;5017289;28;20049;-80
2024/03/21 02:38:04;;;;;;;9.00;6.13;;;5.20;99.90;;;;;;5042045;28;20415;-79
2024/03/21 02:40:32;;;;;;;10.93;6.63;;;5.20;99.90;;;;;;5048544;28;20049;-79
2024/03/21 02:42:59;;;;;;;9.55;7.10;;;5.10;99.90;;;;;;5045297;28;20385;-79
2024/03/21 02:45:25;;;;;;;10.23;6.68;;;5.10;99.90;;;;;;5033414;28;20130;-79
2024/03/21 02:47:50;;;;;;;12.35;6.72;;;5.10;99.90;;;;;;5028750;28;20419;-78
2024/03/21 02:50:17;;;;;;;13.15;6.60;;;5.20;99.90;;;;;;5030706;28;20053;-79
2024/03/21 02:52:43;;;;;;;9.15;6.63;;;5.20;99.90;;;;;;5028364;28;20514;-80
2024/03/21 02:55:09;;;;;;;9.52;6.72;;;5.20;99.90;;;;;;5021299;28;20053;-79
2024/03/21 02:57:34;;;;;;;10.70;6.50;;;5.00;99.90;;;;;;5047127;28;20123;-79
2024/03/21 03:00:00;;;;;;;8.30;6.60;;;5.00;99.90;;;;;;5022518;28;20053;-80
2024/03/21 03:02:27;;;;;;;10.70;5.93;;;5.00;99.90;;;;;;5024493;28;20059;-79
2024/03/21 03:04:55;;;;;;;13.95;6.80;;;5.10;99.90;;;;;;5019064;28;20068;-80
2024/03/21 03:07:21;;;;;;;10.98;7.28;;;5.00;99.90;;;;;;5023731;28;20076;-79
2024/03/21 03:09:47;;;;;;;8.80;6.28;;;4.90;99.90;;;;;;5043563;28;20044;-79
2024/03/21 03:12:15;;;;;;;11.88;6.72;;;4.90;99.90;;;;;;5027900;28;20053;-79
2024/03/21 03:14:42;;;;;;;8.77;6.18;;;4.90;99.90;;;;;;5025086;28;20060;-79
2024/03/21 03:17:08;;;;;;;11.55;6.60;;;4.90;99.90;;;;;;5029101;28;20053;-79
2024/03/21 03:19:34;;;;;;;11.85;7.00;;;4.80;99.90;;;;;;5023461;28;20396;-79
2024/03/21 03:22:00;;;;;;;9.00;6.32;;;4.80;99.90;;;;;;5021828;28;20104;-79
2024/03/21 03:24:25;;;;;;;7.78;6.07;;;4.80;99.90;;;;;;5028577;28;20105;-79
2024/03/21 03:26:51;;;;;;;10.68;6.80;;;4.80;99.90;;;;;;5028166;28;20534;-79
2024/03/21 03:29:20;;;;;;;8.93;6.40;;;4.80;99.90;;;;;;5024205;28;20056;-79
2024/03/21 03:31:46;;;;;;;9.40;6.05;;;4.80;99.90;;;;;;5040486;28;20045;-79
2024/03/21 03:36:57;;;;;;;11.75;6.78;;;4.90;99.90;;;;;;5037404;28;20491;-79
2024/03/21 03:39:25;;;;;;;9.70;6.55;;;4.90;99.90;;;;;;5023552;28;20053;-79
2024/03/21 03:41:53;;;;;;;10.85;6.25;;;4.90;99.90;;;;;;5043888;28;20053;-79
2024/03/21 03:44:20;;;;;;;8.30;6.55;;;4.90;99.90;;;;;;5024991;28;20458;-79
2024/03/21 03:46:48;;;;;;;8.70;6.63;;;4.90;99.90;;;;;;5022704;28;20041;-80
2024/03/21 03:49:14;;;;;;;8.68;6.65;;;4.80;99.90;;;;;;5028956;28;20705;-79
2024/03/21 03:51:45;;;;;;;10.15;6.28;;;4.80;99.90;;;;;;5019803;28;20052;-80
2024/03/21 03:54:11;;;;;;;10.25;6.35;;;4.70;99.90;;;;;;5010293;28;20094;-79
2024/03/21 03:56:39;;;;;;;9.25;6.90;;;4.60;99.90;;;;;;5024569;28;20053;-80
2024/03/21 03:59:04;;;;;;;9.27;6.63;;;4.60;99.90;;;;;;5018696;28;20060;-80
2024/03/21 04:01:33;;;;;;;12.80;7.03;;;4.70;99.90;;;;;;5029096;28;20057;-79
2024/03/21 04:03:58;;;;;;;10.13;6.63;;;4.70;99.90;;;;;;5030903;28;20080;-80
2024/03/21 04:06:24;;;;;;;8.57;6.35;;;4.60;99.90;;;;;;5025101;28;20049;-79
2024/03/21 04:08:50;;;;;;;11.90;6.90;;;4.60;99.90;;;;;;5023288;28;20059;-79
2024/03/21 04:11:17;;;;;;;7.60;5.97;;;4.60;99.90;;;;;;5049914;28;20041;-79
2024/03/21 04:13:43;;;;;;;9.45;6.35;;;4.60;99.90;;;;;;5040185;28;20053;-80
2024/03/21 04:16:15;;;;;;;11.63;7.13;;;4.60;99.90;;;;;;5026073;28;20049;-79
2024/03/21 04:18:42;;;;;;;9.70;7.10;;;4.60;99.90;;;;;;5021539;28;20068;-79
2024/03/21 04:21:08;;;;;;;16.15;7.97;;;4.70;99.90;;;;;;5042064;28;20056;-79
2024/03/21 04:23:34;;;;;;;11.88;7.38;;;4.80;99.90;;;;;;5023631;28;20107;-79
2024/03/21 04:26:00;;;;;;;13.88;8.18;;;4.90;99.90;;;;;;5039788;28;20053;-79
2024/03/21 04:28:28;;;;;;;11.80;7.70;;;5.00;99.90;;;;;;5029304;28;20057;-79
2024/03/21 04:30:54;;;;;;;10.77;7.30;;;4.90;99.90;;;;;;5024493;28;20775;-79
2024/03/21 04:33:20;;;;;;;13.10;7.22;;;4.90;99.90;;;;;;5024710;28;20106;-79
2024/03/21 04:35:49;;;;;;;12.25;8.23;;;4.80;99.90;;;;;;5024190;28;20057;-79
2024/03/21 04:38:15;;;;;;;11.52;8.45;;;4.80;99.90;;;;;;5021784;28;20056;-79
2024/03/21 04:40:41;;;;;;;13.02;8.25;;;4.60;99.90;;;;;;5036168;28;20846;-79
2024/03/21 04:43:08;;;;;;;11.55;8.18;;;4.60;99.90;;;;;;5022784;28;20057;-80
2024/03/21 04:45:34;;;;;;;14.35;8.23;;;4.60;99.90;;;;;;5019414;28;20056;-79
2024/03/21 04:48:00;;;;;;;13.77;7.93;;;4.60;99.90;;;;;;5015906;28;20049;-79
2024/03/21 04:50:27;;;;;;;10.98;7.75;;;4.50;99.90;;;;;;5043760;28;20092;-79
2024/03/21 04:52:53;;;;;;;10.30;7.03;;;4.50;99.90;;;;;;5024113;28;20053;-80
2024/03/21 04:55:19;;;;;;;12.52;7.78;;;4.50;99.90;;;;;;5028246;28;20057;-79
2024/03/21 04:57:46;;;;;;;14.05;7.22;;;4.50;99.90;;;;;;5024633;28;20057;-79
2024/03/21 05:00:13;;;;;;;11.02;7.00;;;4.50;99.90;;;;;;5036851;28;20049;-79
2024/03/21 05:02:39;;;;;;;10.63;7.30;;;4.60;99.90;;;;;;5019704;28;20488;-79
2024/03/21 05:05:05;;;;;;;13.32;8.00;;;4.50;99.90;;;;;;5039070;28;20066;-79
2024/03/21 05:07:32;;;;;;;13.10;7.53;;;4.50;99.90;;;;;;5023711;28;20057;-79
2024/03/21 05:10:01;;;;;;;10.07;6.65;;;4.50;99.90;;;;;;5028126;28;20454;-79
2024/03/21 05:12:28;;;;;;;10.05;6.60;;;4.50;99.90;;;;;;5041114;28;20049;-79
2024/03/21 05:14:54;;;;;;;13.00;7.85;;;4.50;99.90;;;;;;5040826;28;20045;-79
2024/03/21 05:17:20;;;;;;;13.80;6.85;;;4.60;99.90;;;;;;5044628;28;20049;-79
2024/03/21 05:19:47;;;;;;;13.77;8.65;;;4.70;99.90;;;;;;5043077;28;20446;-79
2024/03/21 05:22:14;;;;;;;12.13;8.23;;;4.70;99.90;;;;;;5022409;28;20053;-79
2024/03/21 05:24:42;;;;;;;14.70;9.18;;;4.70;99.90;;;;;;5025863;28;20060;-78
2024/03/21 05:27:09;;;;;;;14.57;9.25;;;4.70;99.90;;;;;;5030870;28;20049;-79
2024/03/21 05:29:40;;;;;;;14.02;9.32;;;4.50;99.90;;;;;;5030428;28;20536;-79
2024/03/21 05:32:08;;;;;;;18.23;8.80;;;4.40;99.90;;;;;;5032315;28;20046;-79
2024/03/21 05:34:35;;;;;;;16.38;8.43;;;4.50;99.90;;;;;;5021833;28;20053;-79
2024/03/21 05:37:03;;;;;;;12.80;9.40;;;4.50;99.90;;;;;;5023074;28;20049;-78
2024/03/21 05:39:29;;;;;;;14.88;9.32;;;4.40;99.90;;;;;;5027518;28;20768;-79
2024/03/21 05:41:55;;;;;;;16.83;9.25;;;4.40;99.90;;;;;;5032676;28;20056;-79
2024/03/21 05:44:21;;;;;;;13.35;8.95;;;4.30;99.90;;;;;;5028693;28;20058;-79
2024/03/21 05:46:48;;;;;;;15.18;9.27;;;4.30;99.90;;;;;;5031048;28;20053;-79
2024/03/21 05:49:15;;;;;;;21.15;9.25;;;4.30;99.90;;;;;;5028738;28;20045;-79
2024/03/21 05:51:41;;;;;;;13.50;8.38;;;4.40;99.90;;;;;;5020974;28;20057;-79
2024/03/21 05:54:09;;;;;;;15.90;9.35;;;4.40;99.90;;;;;;5044789;28;20434;-80
2024/03/21 05:56:35;;;;;;;17.27;9.73;;;4.40;99.90;;;;;;5026943;28;20056;-80
2024/03/21 05:59:03;;;;;;;17.08;9.77;;;4.50;99.90;;;;;;5016833;28;20060;-78
2024/03/21 06:01:32;;;;;;;14.75;8.82;;;4.50;99.90;;;;;;5020627;28;20053;-78
2024/03/21 06:03:59;;;;;;;11.27;8.23;;;4.60;99.90;;;;;;5019516;28;20060;-77
2024/03/21 06:06:25;;;;;;;15.63;8.55;;;4.50;99.90;;;;;;5040939;28;20411;-77
2024/03/21 06:08:51;;;;;;;14.93;8.50;;;4.60;99.90;;;;;;5022950;28;20412;-77
2024/03/21 06:11:18;;;;;;;18.35;8.75;;;4.60;99.90;;;;;;5028253;28;20049;-76
2024/03/21 06:13:46;;;;;;;13.70;8.85;;;4.60;99.90;;;;;;5020285;28;20053;-76
2024/03/21 06:16:15;;;;;;;18.48;8.80;;;4.70;99.90;;;;;;5021494;28;20061;-77
2024/03/21 06:18:40;;;;;;;12.63;9.30;;;4.70;99.90;;;;;;5025108;28;20048;-77
2024/03/21 06:21:06;;;;;;;14.50;8.45;;;4.80;99.90;;;;;;5044092;28;20175;-77
2024/03/21 06:23:32;;;;;;;14.43;8.57;;;4.80;99.90;;;;;;5035842;28;20068;-77
2024/03/21 06:26:01;;;;;;;17.25;9.05;;;4.80;99.90;;;;;;5023095;28;20080;-77
2024/03/21 06:28:27;;;;;;;10.52;7.85;;;4.80;99.90;;;;;;5045337;28;20481;-76
2024/03/21 06:30:53;;;;;;;11.38;8.05;;;4.90;99.90;;;;;;5043570;28;20103;-76
2024/03/21 06:33:21;;;;;;;12.43;7.43;;;5.00;99.90;;;;;;5021286;28;20120;-77
2024/03/21 06:35:47;;;;;;;12.05;7.18;;;5.10;99.90;;;;;;5023841;28;20102;-79
2024/03/21 06:38:13;;;;;;;9.50;7.00;;;5.20;99.90;;;;;;5031945;28;20048;-87
2024/03/21 06:40:42;;;;;;;11.18;6.65;;;5.30;99.90;;;;;;5015984;28;20057;-77
2024/03/21 06:43:10;;;;;;;7.65;6.32;;;5.40;99.90;;;;;;5018659;28;20076;-76
2024/03/21 06:45:38;;;;;;;9.50;6.53;;;5.50;99.90;;;;;;5022933;28;20052;-77
2024/03/21 06:48:08;;;;;;;14.27;6.28;;;5.60;99.90;;;;;;5015368;28;20072;-77
2024/03/21 06:50:34;;;;;;;7.70;5.47;;;5.70;99.90;;;;;;5021170;28;20824;-77
2024/03/21 06:53:00;;;;;;;8.63;6.07;;;5.80;99.90;;;;;;5023546;28;20060;-76
2024/03/21 06:55:31;;;;;;;8.15;5.30;;;5.90;99.90;;;;;;5039837;28;20079;-77
2024/03/21 06:57:57;;;;;;;9.05;5.40;;;6.10;99.90;;;;;;5025072;28;20111;-77
2024/03/21 07:00:26;;;;;;;9.63;5.40;;;6.20;99.90;;;;;;5025700;28;20057;-76
2024/03/21 07:02:55;;;;;;;12.80;6.13;;;6.40;99.90;;;;;;5043128;28;20064;-77
2024/03/21 07:05:23;;;;;;;8.82;5.60;;;6.50;99.90;;;;;;5025483;28;20057;-77
2024/03/21 07:07:50;;;;;;;9.60;6.10;;;6.50;99.90;;;;;;5038701;28;20071;-76
2024/03/21 07:10:18;;;;;;;10.05;6.20;;;6.50;99.90;;;;;;5053700;28;20495;-77
2024/03/21 07:12:44;;;;;;;8.23;5.38;;;6.60;99.90;;;;;;5041942;28;20045;-77
2024/03/21 07:15:12;;;;;;;12.45;6.13;;;6.70;99.90;;;;;;5050520;28;20052;-76
2024/03/21 07:17:41;;;;;;;9.30;5.88;;;6.80;99.90;;;;;;5032928;28;20050;-77
2024/03/21 07:20:10;;;;;;;7.97;5.82;;;6.90;99.90;;;;;;5017307;28;20057;-77
2024/03/21 07:22:37;;;;;;;8.63;6.28;;;7.10;99.90;;;;;;5033366;28;20057;-77
2024/03/21 07:25:06;;;;;;;7.78;5.30;;;7.30;99.90;;;;;;5027799;28;20207;-77
2024/03/21 07:27:32;;;;;;;8.48;5.90;;;7.40;99.90;;;;;;5069779;28;20052;-77
2024/03/21 07:29:58;;;;;;;8.45;4.50;;;7.60;99.90;;;;;;5038165;28;20049;-77
2024/03/21 07:32:24;;;;;;;8.98;4.40;;;7.70;99.90;;;;;;5023010;28;20407;-77
2024/03/21 07:34:50;;;;;;;7.15;4.90;;;7.90;99.90;;;;;;5023900;28;20048;-77
2024/03/21 07:37:19;;;;;;;11.00;4.97;;;8.10;99.70;;;;;;5025127;28;20053;-77
2024/03/21 07:39:50;;;;;;;6.05;4.60;;;8.20;99.30;;;;;;5025280;28;20057;-77
2024/03/21 07:42:16;;;;;;;6.50;4.53;;;8.30;98.60;;;;;;5031467;28;20491;-77
2024/03/21 07:44:46;;;;;;;6.32;4.35;;;8.40;98.50;;;;;;5021465;28;20052;-77
2024/03/21 07:47:13;;;;;;;10.77;5.10;;;8.40;98.90;;;;;;5033594;28;20499;-77
2024/03/21 07:49:39;;;;;;;8.13;4.80;;;8.50;98.30;;;;;;5018381;28;20101;-77
2024/03/21 07:52:05;;;;;;;11.57;5.97;;;8.60;98.10;;;;;;5017673;28;20050;-78
2024/03/21 07:54:33;;;;;;;10.20;5.40;;;8.70;97.60;;;;;;5015414;28;20060;-77
2024/03/21 07:57:00;;;;;;;10.57;5.28;;;8.80;96.40;;;;;;5015614;28;20120;-77
2024/03/21 07:59:26;;;;;;;9.18;5.43;;;8.90;96.40;;;;;;5016279;28;20111;-77
2024/03/21 08:01:54;;;;;;;7.57;4.95;;;9.00;96.50;;;;;;5033980;28;20061;-77
2024/03/21 08:04:20;;;;;;;7.20;4.80;;;9.20;95.70;;;;;;5018798;28;20052;-77
2024/03/21 08:06:46;;;;;;;7.15;4.75;;;9.30;96.00;;;;;;5020677;28;20056;-77
2024/03/21 08:09:13;;;;;;;7.25;4.55;;;9.50;96.30;;;;;;5020638;28;20049;-77
2024/03/21 08:11:39;;;;;;;6.90;4.60;;;9.70;95.60;;;;;;5027853;28;20050;-77
2024/03/21 08:14:05;;;;;;;9.95;4.80;;;9.90;94.50;;;;;;5025006;28;20049;-77
2024/03/21 08:16:33;;;;;;;8.30;4.63;;;10.10;91.40;;;;;;5040639;28;20064;-77
2024/03/21 08:19:02;;;;;;;7.20;4.30;;;10.30;90.80;;;;;;5023641;28;20064;-77
2024/03/21 08:21:30;;;;;;;6.70;4.88;;;10.40;90.30;;;;;;5021396;28;20411;-77
2024/03/21 08:23:56;;;;;;;6.28;4.95;;;10.60;89.50;;;;;;5020505;28;20053;-77
2024/03/21 08:26:22;;;;;;;10.38;4.80;;;10.80;89.40;;;;;;5040644;28;20506;-77
2024/03/21 08:28:48;;;;;;;7.47;4.53;;;10.90;89.10;;;;;;5019416;28;20049;-77
2024/03/21 08:31:14;;;;;;;7.45;4.43;;;11.10;86.10;;;;;;5016752;28;20060;-77
2024/03/21 08:33:42;;;;;;;7.63;4.07;;;11.30;84.10;;;;;;5031524;28;20415;-77
2024/03/21 08:36:08;;;;;;;5.90;4.57;;;11.50;81.00;;;;;;5031673;28;20053;-77
2024/03/21 08:38:33;;;;;;;6.72;4.35;;;11.60;80.70;;;;;;5016714;28;20103;-77
2024/03/21 08:40:59;;;;;;;7.95;4.90;;;11.90;80.30;;;;;;5036832;28;20045;-77
2024/03/21 08:43:25;;;;;;;6.68;4.45;;;12.10;78.80;;;;;;5019530;28;20061;-77
2024/03/21 08:45:52;;;;;;;8.38;4.90;;;12.20;77.30;;;;;;5036831;28;20526;-76
2024/03/21 08:48:19;;;;;;;7.47;4.38;;;12.40;79.90;;;;;;5022279;28;20049;-77
2024/03/21 08:50:47;;;;;;;6.10;4.80;;;12.60;80.30;;;;;;5022013;28;20056;-77
2024/03/21 08:53:17;;;;;;;5.55;4.22;;;12.80;74.30;;;;;;5025295;28;20061;-77
2024/03/21 08:55:43;;;;;;;8.88;4.93;;;13.00;74.60;;;;;;5022756;28;20049;-78
2024/03/21 08:58:09;;;;;;;7.88;4.88;;;13.30;72.30;;;;;;5024399;28;20050;-78
2024/03/21 09:00:38;;;;;;;9.07;5.63;;;13.50;73.60;;;;;;5054941;28;20057;-77
2024/03/21 09:03:08;;;;;;;8.15;5.25;;;13.80;72.90;;;;;;5023210;28;20060;-78
2024/03/21 09:05:34;;;;;;;7.55;5.70;;;14.00;70.90;;;;;;5050455;28;20056;-78
2024/03/21 09:08:00;;;;;;;10.68;5.57;;;14.20;70.20;;;;;;5035863;28;20079;-77
2024/03/21 09:10:28;;;;;;;10.13;6.82;;;14.30;69.80;;;;;;5037479;28;20053;-78
2024/03/21 09:12:54;;;;;;;11.80;6.00;;;14.40;68.80;;;;;;5037643;28;20057;-78
2024/03/21 09:15:21;;;;;;;11.02;6.35;;;14.30;65.90;;;;;;5036778;28;20407;-78
2024/03/21 09:17:47;;;;;;;9.02;6.10;;;14.30;66.40;;;;;;5051246;28;20056;-78
2024/03/21 09:20:13;;;;;;;9.98;6.15;;;14.30;65.50;;;;;;5032798;28;20089;-77
2024/03/21 09:22:41;;;;;;;9.68;6.13;;;14.30;65.20;;;;;;5032788;28;20527;-77
2024/03/21 09:25:07;;;;;;;14.63;6.85;;;14.40;67.20;;;;;;5030876;28;20107;-77
2024/03/21 09:27:33;;;;;;;12.73;7.13;;;14.40;67.70;;;;;;5045728;28;20049;-77
2024/03/21 09:29:59;;;;;;;11.77;7.22;;;14.40;67.90;;;;;;5060812;28;20483;-77
2024/03/21 09:32:25;;;;;;;15.25;6.78;;;14.40;67.50;;;;;;5028317;28;20064;-78
2024/03/21 09:34:51;;;;;;;14.88;7.72;;;14.40;68.50;;;;;;5047208;28;20068;-78
2024/03/21 09:37:24;;;;;;;12.60;7.07;;;14.40;67.40;;;;;;5047233;28;20045;-77
2024/03/21 09:39:53;;;;;;;23.45;10.30;;;14.50;68.90;;;;;;5037625;28;20060;-78
2024/03/21 09:42:20;;;;;;;16.75;8.80;;;14.70;67.90;;;;;;5038198;28;20075;-77
2024/03/21 09:44:53;;;;;;;11.00;6.45;;;15.00;65.30;;;;;;5019916;28;20389;-78
2024/03/21 09:47:20;;;;;;;9.73;6.68;;;15.00;64.20;;;;;;5019171;28;20050;-78
2024/03/21 09:49:47;;;;;;;14.57;7.40;;;15.10;66.20;;;;;;5017717;28;20057;-78
2024/03/21 09:52:13;;;;;;;12.32;7.53;;;15.10;66.20;;;;;;5018926;28;20504;-78
2024/03/21 09:54:40;;;;;;;12.40;7.90;;;15.10;65.70;;;;;;5019469;28;20057;-78
2024/03/21 09:57:11;;;;;;;12.52;7.63;;;15.30;63.10;;;;;;5049292;28;20045;-77
2024/03/21 09:59:37;;;;;;;10.80;7.93;;;15.50;64.10;;;;;;5029933;28;20048;-78
2024/03/21 10:02:07;;;;;;;11.27;6.93;;;15.50;64.80;;;;;;5024260;28;20050;-78
2024/03/21 10:04:49;;;;;;;9.32;6.25;;;15.70;65.90;;;;;;5055380;28;20064;-78
2024/03/21 10:07:25;;;;;;;11.93;7.22;;;16.40;62.50;;;;;;5043829;28;20049;-78
2024/03/21 10:09:55;;;;;;;11.95;6.90;;;16.50;60.90;;;;;;5023676;28;20052;-78
2024/03/21 10:12:22;;;;;;;16.15;7.15;;;16.50;62.00;;;;;;5025929;28;20053;-78
2024/03/21 10:14:51;;;;;;;10.70;6.97;;;16.40;61.70;;;;;;5024007;28;20412;-78
2024/03/21 10:17:19;;;;;;;12.02;7.30;;;16.30;61.90;;;;;;5022255;28;20060;-78
2024/03/21 10:19:45;;;;;;;16.75;7.45;;;16.20;62.40;;;;;;5022176;28;20053;-78
2024/03/21 10:22:20;;;;;;;13.23;6.80;;;16.10;62.40;;;;;;5020341;28;20411;-77
2024/03/21 10:24:54;;;;;;;10.73;6.60;;;16.30;63.20;;;;;;5018816;28;20065;-77
2024/03/21 10:27:22;;;;;;;10.65;6.57;;;16.30;61.70;;;;;;5017023;28;20111;-78
2024/03/21 10:29:51;;;;;;;14.95;6.97;;;16.20;60.90;;;;;;5033596;28;20052;-78
2024/03/21 10:32:21;;;;;;;16.10;7.57;;;16.10;61.20;;;;;;5018491;28;20049;-78
2024/03/21 10:34:55;;;;;;;13.07;6.90;;;16.00;62.80;;;;;;5019854;28;20049;-78
2024/03/21 10:37:24;;;;;;;16.70;7.47;;;15.90;65.30;;;;;;5035877;28;20061;-78
2024/03/21 10:39:54;;;;;;;7.50;6.30;;;15.80;64.30;;;;;;5039299;28;20705;-78
2024/03/21 10:42:27;;;;;;;12.15;6.53;;;15.80;64.70;;;;;;5056526;28;20057;-77
2024/03/21 10:44:57;;;;;;;12.98;7.20;;;15.90;64.00;;;;;;5024828;28;20067;-78
2024/03/21 10:47:26;;;;;;;14.02;7.78;;;16.00;64.60;;;;;;5040480;28;20045;-78
2024/03/21 10:49:55;;;;;;;13.02;7.25;;;16.20;63.30;;;;;;5025155;28;20049;-77
2024/03/21 10:52:22;;;;;;;10.90;7.13;;;16.20;60.50;;;;;;5023162;28;20049;-78
2024/03/21 10:54:52;;;;;;;13.38;7.55;;;16.20;61.70;;;;;;5022811;28;20499;-78
2024/03/21 10:57:22;;;;;;;14.10;7.03;;;16.70;61.40;;;;;;5019732;28;20127;-78
2024/03/21 10:59:58;;;;;;;12.90;6.60;;;16.70;58.10;;;;;;5035381;28;20053;-78
2024/03/21 11:02:29;;;;;;;9.45;6.75;;;16.40;58.90;;;;;;5017110;28;20057;-77
2024/03/21 11:05:11;;;;;;;13.32;6.90;;;16.40;59.70;;;;;;5016911;28;20064;-78
2024/03/21 11:07:42;;;;;;;11.93;6.80;;;16.40;59.70;;;;;;5017318;28;20053;-77
2024/03/21 11:10:15;;;;;;;11.05;6.53;;;16.30;61.20;;;;;;5034935;28;20049;-78
2024/03/21 11:12:41;;;;;;;9.25;6.60;;;16.60;61.20;;;;;;5019735;28;20084;-78
2024/03/21 11:15:08;;;;;;;11.23;6.18;;;17.50;60.00;;;;;;5002819;28;20061;-78
2024/03/21 11:17:34;;;;;;;13.38;6.70;;;18.20;56.70;;;;;;5026092;28;20053;-78
2024/03/21 11:20:03;;;;;;;11.55;6.25;;;18.60;55.40;;;;;;5028337;28;20060;-78
2024/03/21 11:22:31;;;;;;;10.57;6.90;;;18.70;54.00;;;;;;5022238;28;20063;-78
2024/03/21 11:24:59;;;;;;;10.02;5.97;;;18.60;54.20;;;;;;5042138;28;20060;-78
2024/03/21 11:27:27;;;;;;;11.25;6.50;;;18.40;55.50;;;;;;5043475;28;20644;-78
2024/03/21 11:29:53;;;;;;;12.80;7.90;;;18.20;55.50;;;;;;5014958;28;20037;-78
2024/03/21 11:32:25;;;;;;;17.10;8.20;;;17.90;56.20;;;;;;5020937;28;20076;-78
2024/03/21 11:34:51;;;;;;;11.50;7.72;;;17.60;57.30;;;;;;5019700;28;20057;-78
2024/03/21 11:37:17;;;;;;;11.40;6.95;;;17.50;58.20;;;;;;5018651;28;20060;-78
2024/03/21 11:39:44;;;;;;;21.10;8.57;;;17.40;59.20;;;;;;5016955;28;20057;-78
2024/03/21 11:42:14;;;;;;;16.30;7.68;;;17.20;58.60;;;;;;5015782;28;20049;-78
2024/03/21 11:44:42;;;;;;;10.27;6.90;;;17.10;59.30;;;;;;5016804;28;20480;-77
2024/03/21 11:47:14;;;;;;;14.65;7.75;;;17.00;59.50;;;;;;5016997;28;20049;-78
2024/03/21 11:49:40;;;;;;;14.57;6.45;;;16.90;59.90;;;;;;5045665;28;20045;-78
2024/03/21 11:52:13;;;;;;;13.05;6.38;;;16.50;59.40;;;;;;5020317;28;20391;-78
2024/03/21 11:54:39;;;;;;;12.70;7.35;;;16.40;62.40;;;;;;5038873;28;20045;-78
2024/03/21 11:57:08;;;;;;;15.10;7.60;;;16.30;62.90;;;;;;5023113;28;20060;-78
2024/03/21 11:59:37;;;;;;;11.52;7.00;;;16.30;63.60;;;;;;5024235;28;20065;-78
2024/03/21 12:02:08;;;;;;;13.02;6.30;;;16.30;65.90;;;;;;5026272;28;20061;-77
2024/03/21 12:04:41;;;;;;;12.60;7.10;;;16.40;65.10;;;;;;5026617;28;20056;-78
2024/03/21 12:07:14;;;;;;;10.43;6.70;;;16.40;64.00;;;;;;5028627;28;20049;-78
2024/03/21 12:09:46;;;;;;;14.60;6.78;;;16.40;64.40;;;;;;5029649;28;20078;-78
2024/03/21 12:12:15;;;;;;;12.38;6.68;;;16.50;66.00;;;;;;5031238;28;20049;-78
2024/03/21 12:14:44;;;;;;;11.30;6.93;;;16.60;65.50;;;;;;5032185;28;20053;-78
2024/03/21 12:17:11;;;;;;;10.00;6.22;;;16.70;64.50;;;;;;5045199;28;20553;-78
2024/03/21 12:19:40;;;;;;;9.02;5.93;;;16.90;63.60;;;;;;5033172;28;20065;-78
2024/03/21 12:22:11;;;;;;;10.38;6.55;;;17.10;64.10;;;;;;5016025;28;20057;-78
2024/03/21 12:24:40;;;;;;;10.65;6.45;;;17.30;63.50;;;;;;5017268;28;20060;-78
2024/03/21 12:27:06;;;;;;;10.48;6.50;;;17.40;63.80;;;;;;5028254;28;20049;-78
2024/03/21 12:29:35;;;;;;;9.35;5.80;;;17.50;64.80;;;;;;5019591;28;20056;-78
2024/03/21 12:32:01;;;;;;;10.57;5.50;;;17.50;64.50;;;;;;5021488;28;20054;-78
2024/03/21 12:34:27;;;;;;;8.60;5.68;;;17.50;64.10;;;;;;5026857;28;20057;-78
2024/03/21 12:36:55;;;;;;;10.13;5.93;;;17.60;64.70;;;;;;5044200;28;20508;-77
2024/03/21 12:39:21;;;;;;;9.45;5.75;;;17.60;62.70;;;;;;5016175;28;20488;-77
2024/03/21 12:41:47;;;;;;;7.38;5.40;;;17.70;62.20;;;;;;5023802;28;20128;-77
2024/03/21 12:44:18;;;;;;;11.82;6.88;;;17.70;61.30;;;;;;5024440;28;20060;-77
2024/03/21 12:46:47;;;;;;;7.95;6.18;;;18.00;63.20;;;;;;5045728;28;20056;-77
2024/03/21 12:49:13;;;;;;;16.70;6.28;;;18.40;63.00;;;;;;5028142;28;20061;-77